Warning: Javascript must be enabled to use all the features on this page!


Page Loading - Please Wait...

Click to hideNews Bulletins

Peak Streamflow for New York

USGS 01357500 MOHAWK RIVER AT COHOES NY

Albany County, New York
Hydrologic Unit Code 02020004
Latitude  42°47'07.4", Longitude  73°42'28.0" NAD83
Drainage area 3,450  square miles
Gage datum 48.47 feet above NAVD88
Output formats
Table
Graph
Tab-separated file
peakfq (watstore) format
Reselect output format
Water
Year
Date Gage
Height
(feet)
Stream-
flow
(cfs)
1863 1863   200,0002,7,A,Bm
1913 1913-03-27   99,0002,6
1915 1915-07-09   45,4002,6
1916 1916-04-02   115,0002,6
1917 1917-06-12   52,4002,6
1918 1917-10-31   51,1002,6
1919 1919-04-13 7.593 35,0006
1920 1920-03-27 9.243 64,5006
1921 1920-12-06 8.313 47,1006
1922 1922-04-12 8.833 56,4006
1923 1923-04-06 8.933 58,3006
1924 1924-04-07 9.603 71,5006
1925 1924-10-01 8.883,6 57,5006
1926 1926-04-10 16.60 52,6006
1927 1927-03-15 16.80 54,8006
1928 1927-12-09 16.80 54,8006
1929 1929-03-16 18.30 72,0006
1930 1930-03-09 15.40 38,5006
1931 1931-04-11 14.70 33,0006
1932 1932-04-01 15.50 41,0006
1933 1932-10-07 16.17 47,6006
1934 1934-03-06 15.95 45,2006
1935 1935-01-10 18.151 61,1006
1936 1936-03-19 22.57 130,0006
1937 1937-01-25 16.62 48,9006
1938 1938-09-22 20.61 102,0006
1939 1938-12-11 16.79 51,0006
1940 1940-04-09 18.53 63,0006
1941 1940-12-30 17.18 49,1006
1942 1942-03-17 16.98 47,2006
1943 1942-12-31 18.62 63,9006
1944 1944-03-17 16.85 46,0006
1945 1945-03-22 17.01 47,5006
1946 1946-03-10 18.09 58,3006
1947 1947-04-07 17.26 51,3006
1948 1948-03-20 19.91 82,7006
1949 1948-12-31 20.18 86,3006
1950 1950-03-29 19.14 72,8006
1951 1951-04-01 19.58 77,3006
1952 1952-04-06 18.52 60,8006
1953 1953-03-27 18.37 59,0006
1954 1954-02-18 18.29 56,8006
1955 1955-03-12 17.86 51,5006
1956 1955-10-17 21.15 100,0006
1957 1957-01-24 14.90 23,0006
1958 1958-04-07 16.78 39,7006
1959 1959-01-22 18.85 64,4006
1960 1960-04-04 20.15 83,3006
1961 1961-02-26 19.39 71,9006
1962 1962-04-01 18.59 61,9006
1963 1963-03-28 18.64 61,6006
1964 1964-03-06 23.15 143,0006,9
1965 1965-04-12 15.52 27,8006
1966 1966-03-25 16.08 32,7006
1967 1967-01-26 15.12 24,6006
1968 1968-03-24 18.18 55,8006
1969 1969-04-23 17.02 42,3006
1970 1970-04-03 18.23 56,4006
1971 1971-04-14 16.86 40,6006
1972 1972-06-24 18.37 58,1006,9
1973 1972-11-09 18.18 55,8006
1974 1973-12-27 20.00 80,9006
1975 1975-02-25 19.55 74,2006
1976 1976-02-20 18.80 62,7006
1977 1977-03-14 21.76 112,0006
1978 1977-10-18 19.36 70,9006
1979 1979-03-07 19.41 71,6006
1980 1980-03-22 20.79 93,7006
1981 1981-02-21 18.09 53,1006
1982 1981-10-28 18.08 53,0006
1983 1983-04-25 19.42 71,8006
1984 1983-12-14 18.85 63,4006
1985 1985-03-13 17.63 47,5006
1986 1986-03-16 20.68 91,8006,9
1987 1987-04-05 20.05 81,3006
1988 1987-10-28 16.93 40,0006
1989 1989-03-31 16.52 36,2006
1990 1990-05-21 17.21 42,9006
1991 1990-11-11 18.42 57,4006
1992 1992-05-03 16.96 40,3006
1993 1993-03-31 19.62 74,7006
1994 1994-04-14 18.37 56,8006
1995 1995-03-16 14.84 22,4006
1996 1996-01-20 22.68 132,0006,9
1997 1996-11-10 19.95 79,7006
1998 1998-01-09 20.39 86,8006
1999 1999-09-17 16.53 40,8006,9
2000 2000-02-29 20.29 89,7006,9
2001 2001-04-10 19.33 75,0006
2002 2002-05-14 16.72 42,8006
2003 2003-03-23 18.66 65,7006
2004 2003-10-29 17.43 50,5006
2005 2005-04-03 20.80 98,1006
2006 2006-06-29 20.70 96,4006
2007 2007-04-17 19.95 82,8006
2008 2008-03-09 18.78 64,9006
2009 2009-03-09 18.14 56,9006
2010 2010-03-23 19.14 69,9006
2011 2011-08-29 21.86 117,0006,9
2012 2012-05-09 16.84 44,0006
2013 2013-06-14 18.96 69,8006
2014 2014-03-30 17.14 47,3006
2015 2015-04-04 15.71 33,6006
2016 2016-02-25 16.13 36,9006
2017 2017-04-05 18.61 65,1006
2018 2018-02-22 17.37 49,8006
2019 2019-04-21 16.45 40,1006
2020 2019-11-01 18.30 61,0006
?
  Peak Gage-Height Qualification Codes.
?
  Peak Streamflow Qualification Codes.